createdAt,value
2018-11-26T00:00:33.143Z,44.03
2018-11-26T00:03:02.410Z,38.40
2018-11-26T00:05:31.688Z,40.73
2018-11-26T00:08:00.891Z,42.03
2018-11-26T00:10:40.759Z,41.45
2018-11-26T00:13:10.034Z,38.25
2018-11-26T00:15:39.447Z,36.55
2018-11-26T00:18:08.819Z,37.48
2018-11-26T00:20:38.218Z,39.18
2018-11-26T00:23:08.678Z,37.60
2018-11-26T00:25:37.895Z,35.48
2018-11-26T00:28:07.282Z,42.43
2018-11-26T00:30:36.977Z,37.25
2018-11-26T00:33:06.354Z,34.75
2018-11-26T00:35:35.492Z,34.35
2018-11-26T00:38:04.961Z,30.70
2018-11-26T00:40:34.405Z,31.50
2018-11-26T00:43:03.695Z,34.05
2018-11-26T00:45:33.011Z,36.70
2018-11-26T00:48:02.310Z,35.08
2018-11-26T00:50:31.754Z,25.50
2018-11-26T00:53:01.116Z,32.88
2018-11-26T00:55:30.420Z,31.60
2018-11-26T00:57:59.734Z,37.45
2018-11-26T01:00:29.015Z,32.48
2018-11-26T01:02:58.281Z,24.12
2018-11-26T01:05:37.899Z,37.60
2018-11-26T01:08:07.448Z,35.40
2018-11-26T01:10:36.660Z,35.78
2018-11-26T01:13:06.507Z,39.13
2018-11-26T01:15:35.887Z,39.73
2018-11-26T01:18:05.579Z,40.23
2018-11-26T01:20:35.070Z,37.45
2018-11-26T01:23:04.270Z,42.75
2018-11-26T01:25:33.365Z,39.65
2018-11-26T01:28:02.801Z,47.10
2018-11-26T01:30:33.156Z,47.67
2018-11-26T01:33:02.310Z,45.63
2018-11-26T01:35:31.946Z,34.35
2018-11-26T01:38:01.354Z,37.15
2018-11-26T01:40:35.592Z,35.15
2018-11-26T01:43:04.827Z,34.75
2018-11-26T01:45:34.067Z,35.70
2018-11-26T01:48:03.293Z,32.83
2018-11-26T01:50:32.439Z,33.38
2018-11-26T01:53:01.667Z,34.43
2018-11-26T01:55:30.962Z,34.55
2018-11-26T01:58:00.167Z,29.10
2018-11-26T02:00:29.457Z,33.95
2018-11-26T02:02:58.855Z,34.60
2018-11-26T02:05:28.263Z,35.15
2018-11-26T02:07:57.471Z,42.53
2018-11-26T02:10:27.030Z,39.70
2018-11-26T02:12:56.243Z,39.23
2018-11-26T02:15:36.658Z,36.23
2018-11-26T02:18:05.801Z,38.77
2018-11-26T02:20:34.823Z,42.75
2018-11-26T02:23:04.341Z,42.23
2018-11-26T02:25:33.748Z,35.97
2018-11-26T02:28:03.050Z,38.00
2018-11-26T02:30:32.528Z,41.58
2018-11-26T02:33:01.663Z,40.28
2018-11-26T02:35:30.868Z,36.03
2018-11-26T02:38:00.460Z,38.83
2018-11-26T02:40:30.650Z,33.23
2018-11-26T02:42:59.984Z,36.33
2018-11-26T02:45:29.578Z,37.10
2018-11-26T02:47:58.755Z,32.00
2018-11-26T02:50:27.958Z,34.10
2018-11-26T02:52:57.326Z,28.02
2018-11-26T02:55:26.455Z,27.22
2018-11-26T02:57:55.650Z,28.67
2018-11-26T03:00:25.056Z,28.02
2018-11-26T03:02:54.270Z,30.00
2018-11-26T03:05:29.005Z,26.80
2018-11-26T03:07:58.247Z,28.98
2018-11-26T03:10:27.548Z,29.00
2018-11-26T03:12:57.106Z,26.23
2018-11-26T03:15:26.407Z,28.23
2018-11-26T03:17:55.699Z,29.30
2018-11-26T03:20:25.185Z,27.13
2018-11-26T03:22:54.287Z,31.17
2018-11-26T03:25:23.445Z,24.95
2018-11-26T03:27:53.196Z,24.75
2018-11-26T03:30:23.158Z,24.75
2018-11-26T03:32:52.326Z,24.60
2018-11-26T03:35:21.816Z,24.18
2018-11-26T03:37:51.174Z,27.87
2018-11-26T03:40:20.456Z,24.18
2018-11-26T03:42:49.954Z,24.15
2018-11-26T03:45:19.270Z,24.57
2018-11-26T03:47:48.450Z,28.23
2018-11-26T03:50:17.664Z,24.57
2018-11-26T03:52:46.934Z,22.02
2018-11-26T03:55:16.086Z,24.02
2018-11-26T03:57:45.623Z,22.82
2018-11-26T04:00:17.071Z,23.30
2018-11-26T04:02:46.487Z,24.12
2018-11-26T04:05:15.699Z,26.48
2018-11-26T04:07:44.850Z,24.57
2018-11-26T04:10:14.758Z,22.87
2018-11-26T04:12:44.154Z,21.47
2018-11-26T04:15:14.723Z,26.00
2018-11-26T04:17:44.099Z,22.25
2018-11-26T04:20:13.382Z,25.88
2018-11-26T04:22:42.483Z,28.85
2018-11-26T04:25:11.998Z,26.17
2018-11-26T04:27:41.255Z,27.15
2018-11-26T04:30:11.777Z,29.77
2018-11-26T04:32:41.742Z,26.07
2018-11-26T04:35:11.119Z,22.90
2018-11-26T04:37:40.387Z,27.37
2018-11-26T04:40:10.737Z,28.57
2018-11-26T04:42:40.011Z,30.62
2018-11-26T04:45:10.613Z,25.88
2018-11-26T04:47:40.201Z,28.38
2018-11-26T04:50:12.463Z,31.57
2018-11-26T04:52:41.897Z,27.52
2018-11-26T04:55:12.362Z,25.65
2018-11-26T04:57:42.753Z,29.15
2018-11-26T05:00:12.394Z,25.57
2018-11-26T05:02:41.650Z,28.25
2018-11-26T05:05:12.704Z,27.95
2018-11-26T05:07:42.271Z,33.53
2018-11-26T05:10:13.595Z,26.68
2018-11-26T05:12:43.179Z,29.67
2018-11-26T05:15:13.351Z,30.80
2018-11-26T05:17:42.583Z,30.93
2018-11-26T05:20:13.959Z,31.25
2018-11-26T05:22:43.271Z,28.55
2018-11-26T05:25:12.973Z,29.15
2018-11-26T05:27:41.883Z,27.13
2018-11-26T05:30:12.863Z,28.05
2018-11-26T05:32:42.174Z,27.15
2018-11-26T05:35:12.551Z,28.57
2018-11-26T05:37:41.803Z,29.80
2018-11-26T05:40:13.088Z,29.37
2018-11-26T05:42:42.526Z,29.82
2018-11-26T05:45:12.905Z,30.70
2018-11-26T05:47:42.588Z,32.20
2018-11-26T05:50:13.759Z,27.80
2018-11-26T05:52:43.316Z,30.77
2018-11-26T05:55:15.194Z,32.63
2018-11-26T05:57:45.016Z,37.55
2018-11-26T06:00:16.791Z,35.25
2018-11-26T06:02:46.496Z,37.15
2018-11-26T06:05:15.706Z,35.40
2018-11-26T06:07:45.003Z,36.77
2018-11-26T06:10:14.500Z,35.00
2018-11-26T06:12:43.815Z,31.48
2018-11-26T06:15:13.691Z,37.53
2018-11-26T06:17:42.822Z,25.37
2018-11-26T06:20:13.251Z,28.27
2018-11-26T06:22:44.055Z,26.35
2018-11-26T06:25:17.681Z,23.87
2018-11-26T06:27:47.489Z,25.17
2018-11-26T06:30:17.512Z,22.10
2018-11-26T06:32:46.824Z,22.90
2018-11-26T06:35:23.603Z,24.98
2018-11-26T06:37:54.116Z,25.85
2018-11-26T06:40:22.301Z,23.90
2018-11-26T06:42:51.702Z,24.82
2018-11-26T06:45:23.594Z,22.62
2018-11-26T06:47:53.374Z,26.35
2018-11-26T06:50:22.640Z,24.80
2018-11-26T06:52:51.745Z,24.50
2018-11-26T06:55:21.826Z,22.27
2018-11-26T06:57:51.204Z,26.30
2018-11-26T07:00:21.247Z,24.32
2018-11-26T07:02:50.843Z,23.25
2018-11-26T07:05:22.322Z,25.88
2018-11-26T07:07:52.040Z,27.13
2018-11-26T07:10:21.595Z,25.57
2018-11-26T07:12:50.910Z,24.87
2018-11-26T07:15:21.530Z,25.37
2018-11-26T07:17:51.016Z,26.68
2018-11-26T07:20:21.162Z,22.73
2018-11-26T07:22:51.127Z,28.62
2018-11-26T07:25:21.365Z,27.42
2018-11-26T07:27:54.709Z,24.98
2018-11-26T07:30:26.748Z,26.02
2018-11-26T07:32:56.299Z,28.38
2018-11-26T07:35:25.687Z,30.90
2018-11-26T07:37:55.091Z,29.25
2018-11-26T07:40:24.916Z,61.92
2018-11-26T07:42:57.782Z,40.38
2018-11-26T07:45:26.995Z,38.78
2018-11-26T07:47:56.352Z,33.28
2018-11-26T07:50:25.675Z,29.87
2018-11-26T07:52:55.167Z,25.35
2018-11-26T07:55:24.408Z,24.00
2018-11-26T07:57:53.710Z,28.60
2018-11-26T08:00:23.420Z,27.22
2018-11-26T08:02:52.678Z,26.17
2018-11-26T08:05:22.617Z,27.02
2018-11-26T08:07:52.244Z,57.73
2018-11-26T08:10:22.331Z,27.90
2018-11-26T08:12:53.840Z,28.27
2018-11-26T08:15:23.971Z,25.45
2018-11-26T08:17:53.332Z,24.82
2018-11-26T08:20:22.735Z,24.10
2018-11-26T08:22:52.247Z,23.30
2018-11-26T08:25:22.502Z,23.40
2018-11-26T08:27:52.376Z,30.57
2018-11-26T08:30:28.744Z,31.37
2018-11-26T08:32:59.989Z,24.47
2018-11-26T08:35:29.788Z,23.45
2018-11-26T08:38:04.151Z,22.35
2018-11-26T08:40:38.346Z,23.30
2018-11-26T08:43:07.601Z,25.55
2018-11-26T08:45:37.344Z,22.10
2018-11-26T08:48:15.325Z,23.00
2018-11-26T08:50:44.832Z,21.37
2018-11-26T08:53:14.082Z,21.30
2018-11-26T08:55:43.468Z,20.77
2018-11-26T08:58:12.762Z,20.35
2018-11-26T09:00:41.930Z,20.97
2018-11-26T09:03:16.280Z,20.82
2018-11-26T09:05:46.279Z,21.12
2018-11-26T09:08:15.826Z,17.80
2018-11-26T09:10:45.199Z,18.05
2018-11-26T09:13:14.326Z,18.42
2018-11-26T09:15:43.650Z,20.80
2018-11-26T09:18:13.162Z,20.43
2018-11-26T09:20:42.343Z,21.97
2018-11-26T09:23:11.495Z,22.25
2018-11-26T09:25:40.755Z,23.40
2018-11-26T09:28:10.003Z,19.87
2018-11-26T09:30:39.157Z,22.07
2018-11-26T09:33:08.587Z,30.17
2018-11-26T09:35:37.720Z,20.15
2018-11-26T09:38:07.122Z,19.67
2018-11-26T09:40:36.476Z,25.52
2018-11-26T09:43:06.475Z,22.32
2018-11-26T09:45:40.102Z,21.90
2018-11-26T09:48:05.020Z,18.48
2018-11-26T09:50:33.935Z,23.52
2018-11-26T09:53:02.940Z,17.80
2018-11-26T09:55:32.196Z,18.75
2018-11-26T09:58:01.127Z,22.25
2018-11-26T10:00:30.903Z,32.23
2018-11-26T10:02:59.875Z,24.23
2018-11-26T10:05:28.820Z,25.20
2018-11-26T10:07:57.736Z,19.92
2018-11-26T10:10:27.440Z,24.45
2018-11-26T10:12:56.590Z,23.90
2018-11-26T10:15:27.188Z,23.02
2018-11-26T10:17:56.156Z,25.27
2018-11-26T10:20:25.098Z,31.55
2018-11-26T10:22:54.659Z,20.08
2018-11-26T10:25:24.144Z,20.92
2018-11-26T10:27:53.167Z,20.75
2018-11-26T10:30:23.515Z,12.55
2018-11-26T10:32:53.457Z,17.57
2018-11-26T10:35:22.807Z,12.28
2018-11-26T10:37:51.904Z,15.35
2018-11-26T10:40:23.953Z,16.23
2018-11-26T10:42:52.962Z,13.50
2018-11-26T10:45:22.992Z,12.68
2018-11-26T10:47:52.202Z,11.75
2018-11-26T10:50:22.817Z,17.27
2018-11-26T10:52:56.940Z,13.43
2018-11-26T10:55:34.513Z,12.45
2018-11-26T10:58:03.888Z,13.13
2018-11-26T11:00:38.195Z,11.63
2018-11-26T11:03:07.863Z,13.48
2018-11-26T11:05:37.963Z,19.25
2018-11-26T11:08:07.926Z,15.50
2018-11-26T11:10:37.222Z,16.17
2018-11-26T11:13:06.866Z,14.60
2018-11-26T11:15:35.996Z,12.60
2018-11-26T11:18:05.815Z,13.98
2018-11-26T11:20:34.951Z,15.08
2018-11-26T11:23:03.917Z,13.15
2018-11-26T11:25:33.631Z,11.00
2018-11-26T11:28:02.646Z,17.00
2018-11-26T11:30:31.608Z,15.00
2018-11-26T11:35:28.840Z,13.13
2018-11-26T11:37:57.666Z,14.80
2018-11-26T11:40:30.095Z,12.95
2018-11-26T11:43:00.046Z,13.28
2018-11-26T11:45:29.832Z,13.95
2018-11-26T11:47:59.026Z,15.95
2018-11-26T11:50:27.924Z,19.52
2018-11-26T11:52:56.791Z,21.57
2018-11-26T11:55:27.068Z,23.38
2018-11-26T11:57:56.080Z,22.10
2018-11-26T12:00:34.740Z,21.73
2018-11-26T12:03:05.929Z,19.35
2018-11-26T12:05:34.865Z,24.00
2018-11-26T12:08:04.211Z,19.23
2018-11-26T12:10:33.206Z,16.45
2018-11-26T12:13:02.200Z,18.12
2018-11-26T12:15:31.330Z,20.23
2018-11-26T12:18:00.299Z,18.23
2018-11-26T12:20:29.293Z,23.62
2018-11-26T12:22:58.582Z,16.02
2018-11-26T12:25:27.477Z,43.30
2018-11-26T12:27:56.360Z,21.77
2018-11-26T12:30:27.084Z,19.20
2018-11-26T12:32:56.027Z,21.55
2018-11-26T12:35:25.372Z,17.45
2018-11-26T12:37:54.697Z,16.73
2018-11-26T12:40:24.801Z,13.75
2018-11-26T12:42:54.897Z,14.63
2018-11-26T12:45:26.036Z,12.60
2018-11-26T12:47:55.569Z,15.53
2018-11-26T12:50:24.836Z,16.20
2018-11-26T12:52:54.518Z,13.60
2018-11-26T12:55:24.345Z,14.80
2018-11-26T12:57:54.206Z,15.60
2018-11-26T13:00:24.640Z,20.17
2018-11-26T13:02:59.754Z,15.88
2018-11-26T13:05:29.218Z,18.07
2018-11-26T13:07:58.400Z,14.80
2018-11-26T13:10:27.648Z,13.70
2018-11-26T13:12:57.217Z,14.00
2018-11-26T13:15:28.436Z,13.93
2018-11-26T13:17:58.064Z,16.35
2018-11-26T13:20:29.325Z,15.43
2018-11-26T13:22:58.619Z,18.80
2018-11-26T13:25:32.210Z,19.92
2018-11-26T13:28:03.375Z,20.65
2018-11-26T13:30:33.940Z,14.85
2018-11-26T13:33:04.460Z,19.80
2018-11-26T13:35:33.582Z,22.50
2018-11-26T13:38:02.993Z,20.05
2018-11-26T13:40:32.472Z,24.05
2018-11-26T13:43:01.676Z,36.77
2018-11-26T13:45:41.728Z,25.57
2018-11-26T13:48:12.145Z,26.42
2018-11-26T13:50:47.130Z,26.77
2018-11-26T13:53:16.728Z,30.48
2018-11-26T13:55:45.603Z,33.00
2018-11-26T13:58:14.808Z,31.80
2018-11-26T14:00:44.151Z,24.05
2018-11-26T14:03:13.527Z,21.60
2018-11-26T14:05:42.927Z,22.95
2018-11-26T14:08:12.512Z,19.82
2018-11-26T14:10:41.816Z,22.82
2018-11-26T14:13:14.356Z,32.10
2018-11-26T14:15:43.419Z,26.85
2018-11-26T14:18:12.384Z,25.25
2018-11-26T14:20:41.632Z,24.55
2018-11-26T14:23:10.901Z,28.25
2018-11-26T14:25:40.198Z,41.73
2018-11-26T14:28:09.820Z,39.10
2018-11-26T14:30:39.115Z,44.93
2018-11-26T14:33:08.420Z,42.75
2018-11-26T14:35:37.655Z,25.23
2018-11-26T14:38:09.080Z,23.70
2018-11-26T14:40:47.104Z,26.33
2018-11-26T14:43:16.350Z,27.10
2018-11-26T14:45:45.659Z,27.67
2018-11-26T14:48:14.912Z,25.05
2018-11-26T14:50:44.066Z,22.07
2018-11-26T14:53:16.032Z,28.32
2018-11-26T14:55:45.149Z,28.25
2018-11-26T14:58:14.328Z,23.20
2018-11-26T15:00:43.851Z,22.15
2018-11-26T15:03:13.122Z,28.10
2018-11-26T15:05:42.557Z,11.25
2018-11-26T15:08:11.970Z,24.65
2018-11-26T15:10:41.370Z,24.02
2018-11-26T15:13:10.652Z,22.87
2018-11-26T15:15:40.317Z,19.87
2018-11-26T15:18:09.541Z,21.33
2018-11-26T15:20:38.705Z,29.87
2018-11-26T15:23:08.204Z,36.03
2018-11-26T15:25:37.463Z,35.60
2018-11-26T15:28:13.011Z,25.37
2018-11-26T15:30:42.223Z,27.45
2018-11-26T15:33:11.489Z,21.93
2018-11-26T15:35:41.019Z,20.25
2018-11-26T15:38:10.212Z,30.77
2018-11-26T15:40:39.692Z,26.50
2018-11-26T15:43:08.969Z,23.02
2018-11-26T15:45:38.551Z,35.17
2018-11-26T15:48:10.668Z,44.13
2018-11-26T15:50:39.952Z,45.52
2018-11-26T15:53:09.933Z,36.68
2018-11-26T15:55:39.516Z,39.65
2018-11-26T15:58:09.532Z,26.30
2018-11-26T16:00:38.801Z,25.05
2018-11-26T16:03:08.420Z,21.05
2018-11-26T16:05:37.866Z,33.50
2018-11-26T16:08:10.405Z,21.37
2018-11-26T16:10:39.739Z,29.07
2018-11-26T16:13:09.846Z,35.48
2018-11-26T16:15:40.497Z,29.80
2018-11-26T16:18:11.181Z,32.48
2018-11-26T16:20:40.535Z,39.13
2018-11-26T16:23:11.267Z,25.55
2018-11-26T16:25:42.689Z,21.52
2018-11-26T16:28:13.605Z,14.50
2018-11-26T16:30:42.756Z,43.33
2018-11-26T16:33:12.388Z,27.52
2018-11-26T16:35:42.155Z,25.12
2018-11-26T16:38:12.043Z,16.65
2018-11-26T16:40:41.290Z,22.93
2018-11-26T16:43:10.765Z,21.25
2018-11-26T16:45:40.000Z,16.70
2018-11-26T16:48:09.100Z,17.65
2018-11-26T16:50:38.929Z,16.85
2018-11-26T16:53:08.387Z,16.30
2018-11-26T16:55:37.548Z,14.98
2018-11-26T16:58:06.957Z,8.23
2018-11-26T17:00:36.005Z,12.45
2018-11-26T17:03:05.197Z,10.90
2018-11-26T17:05:39.593Z,14.73
2018-11-26T17:08:11.062Z,19.95
2018-11-26T17:10:40.628Z,22.52
2018-11-26T17:13:10.172Z,25.35
2018-11-26T17:15:39.397Z,25.25
2018-11-26T17:18:09.264Z,28.47
2018-11-26T17:20:38.817Z,28.23
2018-11-26T17:23:08.343Z,31.85
2018-11-26T17:25:37.956Z,32.28
2018-11-26T17:28:07.461Z,37.63
2018-11-26T17:30:37.217Z,37.70
2018-11-26T17:33:08.027Z,32.78
2018-11-26T17:35:37.160Z,34.13
2018-11-26T17:38:07.073Z,37.08
2018-11-26T17:40:36.709Z,27.25
2018-11-26T17:43:06.165Z,34.40
2018-11-26T17:45:35.376Z,38.02
2018-11-26T17:48:04.669Z,32.90
2018-11-26T17:50:37.077Z,33.18
2018-11-26T17:53:08.575Z,46.88
2018-11-26T17:55:46.065Z,47.27
2018-11-26T17:58:15.384Z,43.30
2018-11-26T18:00:45.552Z,46.08
2018-11-26T18:03:14.771Z,42.00
2018-11-26T18:05:44.224Z,35.55
2018-11-26T18:08:15.040Z,24.95
2018-11-26T18:10:44.334Z,17.37
2018-11-26T18:13:14.158Z,27.10
2018-11-26T18:15:43.430Z,32.53
2018-11-26T18:18:18.309Z,30.40
2018-11-26T18:20:47.985Z,26.17
2018-11-26T18:23:17.300Z,28.10
2018-11-26T18:25:46.840Z,29.37
2018-11-26T18:28:17.111Z,32.13
2018-11-26T18:30:49.956Z,30.57
2018-11-26T18:33:19.113Z,33.15
2018-11-26T18:35:48.836Z,27.87
2018-11-26T18:38:18.442Z,21.75
2018-11-26T18:40:49.028Z,27.95
2018-11-26T18:43:18.316Z,37.73
2018-11-26T18:45:47.799Z,42.00
2018-11-26T18:48:17.123Z,30.85
2018-11-26T18:50:46.328Z,35.23
2018-11-26T18:53:15.724Z,33.75
2018-11-26T18:55:44.932Z,26.60
2018-11-26T18:58:14.134Z,24.80
2018-11-26T19:00:46.189Z,27.00
2018-11-26T19:03:20.391Z,32.05
2018-11-26T19:05:51.093Z,26.90
2018-11-26T19:08:20.396Z,27.60
2018-11-26T19:10:58.092Z,30.75
2018-11-26T19:13:34.861Z,30.40
2018-11-26T19:16:09.816Z,32.28
2018-11-26T19:18:39.194Z,31.45
2018-11-26T19:21:08.593Z,30.97
2018-11-26T19:23:37.904Z,35.13
2018-11-26T19:26:07.312Z,37.48
2018-11-26T19:28:36.464Z,35.65
2018-11-26T19:31:06.634Z,39.25
2018-11-26T19:33:35.925Z,44.20
2018-11-26T19:36:05.194Z,41.68
2018-11-26T19:38:34.916Z,38.73
2018-11-26T19:41:04.131Z,35.52
2018-11-26T19:43:33.101Z,34.05
2018-11-26T19:46:02.588Z,33.48
2018-11-26T19:48:31.984Z,35.08
2018-11-26T19:51:00.946Z,33.53
2018-11-26T19:53:30.726Z,36.98
2018-11-26T19:56:00.048Z,40.33
2018-11-26T19:58:29.140Z,38.88
2018-11-26T20:00:58.632Z,34.78
2018-11-26T20:03:32.880Z,35.78
2018-11-26T20:06:05.045Z,33.15
2018-11-26T20:08:34.328Z,26.87
2018-11-26T20:11:03.648Z,23.18
2018-11-26T20:13:33.252Z,25.62
2018-11-26T20:16:03.377Z,23.77
2018-11-26T20:18:32.699Z,23.18
2018-11-26T20:21:02.284Z,19.92
2018-11-26T20:23:31.659Z,21.95
2018-11-26T20:26:00.851Z,21.00
2018-11-26T20:28:30.080Z,23.30
2018-11-26T20:30:59.190Z,20.15
2018-11-26T20:33:28.574Z,19.23
2018-11-26T20:35:58.312Z,20.72
2018-11-26T20:38:27.594Z,22.87
2018-11-26T20:40:56.860Z,20.08
2018-11-26T20:43:26.715Z,20.30
2018-11-26T20:45:56.023Z,17.70
2018-11-26T20:48:30.327Z,17.62
2018-11-26T20:50:54.952Z,20.00
2018-11-26T20:53:25.825Z,17.57
2018-11-26T20:55:55.162Z,18.57
2018-11-26T20:58:24.662Z,13.88
2018-11-26T21:00:53.867Z,17.70
2018-11-26T21:03:23.364Z,19.48
2018-11-26T21:05:53.433Z,17.12
2018-11-26T21:08:22.964Z,23.32
2018-11-26T21:10:52.397Z,20.37
2018-11-26T21:13:22.069Z,23.25
2018-11-26T21:16:13.406Z,24.07
2018-11-26T21:18:46.460Z,16.27
2018-11-26T21:21:16.105Z,14.65
2018-11-26T21:23:45.604Z,15.63
2018-11-26T21:26:15.396Z,19.85
2018-11-26T21:28:44.872Z,28.90
2018-11-26T21:31:14.399Z,23.47
2018-11-26T21:33:44.308Z,27.17
2018-11-26T21:36:13.916Z,19.25
2018-11-26T21:38:43.352Z,23.12
2018-11-26T21:41:13.134Z,20.17
2018-11-26T21:43:42.837Z,21.55
2018-11-26T21:46:12.396Z,19.73
2018-11-26T21:48:42.002Z,16.67
2018-11-26T21:51:11.656Z,19.65
2018-11-26T21:53:41.177Z,21.05
2018-11-26T21:56:11.045Z,22.65
2018-11-26T21:58:40.747Z,20.32
2018-11-26T22:01:10.733Z,20.90
2018-11-26T22:03:40.627Z,18.15
2018-11-26T22:06:10.304Z,19.40
2018-11-26T22:08:39.897Z,22.25
2018-11-26T22:11:09.753Z,19.48
2018-11-26T22:13:39.280Z,25.05
2018-11-26T22:16:08.900Z,20.45
2018-11-26T22:18:38.696Z,19.20
2018-11-26T22:21:08.412Z,15.03
2018-11-26T22:23:37.871Z,14.87
2018-11-26T22:26:07.372Z,18.45
2018-11-26T22:28:37.260Z,14.55
2018-11-26T22:31:06.888Z,16.07
2018-11-26T22:33:36.790Z,15.55
2018-11-26T22:36:06.385Z,8.45
2018-11-26T22:38:35.903Z,11.10
2018-11-26T22:41:05.884Z,5.12
2018-11-26T22:43:35.182Z,3.50
2018-11-26T22:46:04.336Z,2.47
2018-11-26T22:48:33.616Z,2.52
2018-11-26T22:51:02.840Z,2.55
2018-11-26T22:53:32.056Z,2.30
2018-11-26T22:56:01.318Z,1.82
2018-11-26T22:58:30.680Z,2.50
2018-11-26T23:00:59.972Z,0.53
2018-11-26T23:03:32.652Z,0.20
2018-11-26T23:06:01.647Z,0.30
2018-11-26T23:08:30.704Z,1.05
2018-11-26T23:11:00.136Z,0.50
2018-11-26T23:13:29.309Z,1.52
2018-11-26T23:15:58.325Z,0.50
2018-11-26T23:18:27.443Z,2.35
2018-11-26T23:20:56.744Z,1.72
2018-11-26T23:23:25.936Z,0.85
2018-11-26T23:25:55.657Z,0.60
2018-11-26T23:28:24.777Z,1.35
2018-11-26T23:30:53.951Z,1.92
2018-11-26T23:33:23.560Z,0.20
2018-11-26T23:35:52.659Z,1.37
2018-11-26T23:38:21.844Z,0.55
2018-11-26T23:40:51.366Z,2.10
2018-11-26T23:43:20.672Z,0.70
2018-11-26T23:45:49.886Z,0.65
2018-11-26T23:48:19.203Z,0.40
2018-11-26T23:50:48.330Z,1.20
2018-11-26T23:53:17.556Z,1.02
2018-11-26T23:55:47.164Z,1.42
2018-11-26T23:58:16.340Z,0.47
